SAVC/CRD METAR and TAF weather

Enter ICAO airport designator
Station Type Date Time Source
SAVC METAR 2019/10/15 21:00 UTC NOAA

SAVC 152100Z 07014KT 9999 SCT040 BKN200 13/04 Q1023


Station Type Date Time Source
SAVC Decoded METAR 2019/10/15 21:00 UTC NOAA

Comodoro Rivadavia Aerodrome, Argentina (SAVC) 45-47S 067-30W 46M
Oct 15, 2019 - 05:00 PM EDT / 2019.10.15 2100 UTC
Wind: from the ENE (070 degrees) at 16 MPH (14 KT):0
Visibility: greater than 7 mile(s):0
Sky conditions: mostly cloudy
Temperature: 55 F (13 C)
Dew Point: 39 F (4 C)
Relative Humidity: 54%
Pressure (altimeter): 30.21 in. Hg (1023 hPa)
ob: SAVC 152100Z 07014KT 9999 SCT040 BKN200 13/04 Q1023
cycle: 21

Station Type Date Time Source
SAVC TAF 2019/10/15 18:03 UTC NOAA

TAF TAF SAVC 151700Z 1518/1618 09015KT 9999 FEW035 BKN070 TX16/1518Z TN06/1610Z PROB30
TEMPO 1609/1612 36010KT 9999 DZ BKN030
BECMG 1613/1615 34015KT CAVOK

Example: see airport list